createdAt,value
2023-03-22T00:02:11.507Z,5.68
2023-03-22T00:04:38.200Z,6.47
2023-03-22T00:07:04.886Z,6.03
2023-03-22T00:09:31.896Z,6.75
2023-03-22T00:11:58.603Z,5.40
2023-03-22T00:14:25.761Z,6.85
2023-03-22T00:16:52.496Z,6.18
2023-03-22T00:19:19.182Z,6.00
2023-03-22T00:21:46.488Z,6.68
2023-03-22T00:24:13.198Z,6.93
2023-03-22T00:26:39.875Z,6.47
2023-03-22T00:29:06.588Z,6.07
2023-03-22T00:31:33.410Z,6.32
2023-03-22T00:34:00.318Z,5.43
2023-03-22T00:36:27.085Z,5.53
2023-03-22T00:38:53.802Z,5.53
2023-03-22T00:41:24.192Z,5.50
2023-03-22T00:43:51.876Z,5.00
2023-03-22T00:46:20.490Z,4.75
2023-03-22T00:48:47.862Z,5.47
2023-03-22T00:51:14.924Z,4.25
2023-03-22T00:53:43.329Z,5.30
2023-03-22T00:56:14.398Z,4.97
2023-03-22T00:58:42.241Z,4.90
2023-03-22T01:01:09.310Z,4.97
2023-03-22T01:03:36.271Z,4.38
2023-03-22T01:06:03.056Z,5.55
2023-03-22T01:08:33.554Z,4.70
2023-03-22T01:11:01.429Z,5.15
2023-03-22T01:13:29.089Z,5.15
2023-03-22T01:15:56.185Z,5.07
2023-03-22T01:18:23.410Z,4.95
2023-03-22T01:20:50.181Z,3.80
2023-03-22T01:23:16.925Z,4.72
2023-03-22T01:25:43.689Z,3.70
2023-03-22T01:28:10.469Z,4.63
2023-03-22T01:30:42.255Z,5.28
2023-03-22T01:33:09.234Z,4.10
2023-03-22T01:35:36.348Z,4.18
2023-03-22T01:38:03.383Z,3.85
2023-03-22T01:40:30.123Z,4.05
2023-03-22T01:42:56.968Z,4.45
2023-03-22T01:45:30.513Z,4.15
2023-03-22T01:48:06.286Z,4.30
2023-03-22T01:50:33.093Z,4.22
2023-03-22T01:52:59.880Z,3.88
2023-03-22T01:55:27.731Z,4.50
2023-03-22T01:57:54.648Z,4.82
2023-03-22T02:00:21.515Z,4.65
2023-03-22T02:02:50.591Z,4.07
2023-03-22T02:05:17.725Z,4.00
2023-03-22T02:07:44.882Z,4.10
2023-03-22T02:10:23.822Z,3.97
2023-03-22T02:13:34.276Z,4.30
2023-03-22T02:16:12.838Z,4.50
2023-03-22T02:19:11.819Z,4.65
2023-03-22T02:21:47.517Z,6.15
2023-03-22T02:24:45.665Z,10.77
2023-03-22T02:27:27.554Z,11.57
2023-03-22T02:30:19.995Z,6.13
2023-03-22T02:33:02.375Z,5.50
2023-03-22T02:35:38.121Z,4.50
2023-03-22T02:38:23.047Z,3.97
2023-03-22T02:40:58.904Z,4.30
2023-03-22T02:43:41.677Z,3.85
2023-03-22T02:46:16.055Z,4.28
2023-03-22T02:48:44.876Z,4.05
2023-03-22T02:51:20.299Z,4.68
2023-03-22T02:56:39.483Z,4.22
2023-03-22T02:59:06.348Z,4.28
2023-03-22T03:01:56.268Z,4.47
2023-03-22T03:04:29.201Z,4.65
2023-03-22T03:06:59.475Z,4.90
2023-03-22T03:09:26.206Z,5.40
2023-03-22T03:11:53.740Z,5.05
2023-03-22T03:14:28.764Z,4.03
2023-03-22T03:17:18.253Z,4.80
2023-03-22T03:20:14.345Z,4.30
2023-03-22T03:22:43.862Z,4.18
2023-03-22T03:25:13.487Z,4.85
2023-03-22T03:27:44.339Z,4.25
2023-03-22T03:30:13.740Z,5.05
2023-03-22T03:32:54.733Z,4.35
2023-03-22T03:35:29.803Z,4.40
2023-03-22T03:38:20.991Z,4.30
2023-03-22T03:40:49.216Z,4.53
2023-03-22T03:43:15.886Z,4.55
2023-03-22T03:45:42.648Z,4.82
2023-03-22T03:48:16.267Z,4.20
2023-03-22T03:50:43.033Z,4.18
2023-03-22T03:53:09.705Z,4.40
2023-03-22T03:55:37.731Z,4.20
2023-03-22T03:58:04.385Z,4.65
2023-03-22T04:00:31.279Z,4.97
2023-03-22T04:02:57.980Z,4.50
2023-03-22T04:05:24.665Z,5.00
2023-03-22T04:07:51.339Z,4.97
2023-03-22T04:10:18.259Z,4.70
2023-03-22T04:12:44.932Z,4.63
2023-03-22T04:15:12.484Z,4.47
2023-03-22T04:17:40.031Z,4.88
2023-03-22T04:20:08.190Z,5.25
2023-03-22T04:22:34.920Z,4.57
2023-03-22T04:25:01.834Z,4.53
2023-03-22T04:27:28.669Z,4.85
2023-03-22T04:29:56.013Z,4.43
2023-03-22T04:32:25.580Z,4.97
2023-03-22T04:34:53.081Z,4.50
2023-03-22T04:37:22.677Z,4.65
2023-03-22T04:39:49.390Z,4.50
2023-03-22T04:42:16.140Z,5.28
2023-03-22T04:44:42.828Z,4.80
2023-03-22T04:47:09.568Z,5.28
2023-03-22T04:49:36.251Z,4.93
2023-03-22T04:52:03.165Z,5.10
2023-03-22T04:54:30.067Z,4.75
2023-03-22T04:56:57.942Z,5.35
2023-03-22T04:59:24.746Z,4.45
2023-03-22T05:01:51.786Z,4.60
2023-03-22T05:04:20.320Z,4.55
2023-03-22T05:06:47.179Z,4.65
2023-03-22T05:09:14.236Z,4.53
2023-03-22T05:11:41.094Z,4.75
2023-03-22T05:14:08.804Z,4.60
2023-03-22T05:16:36.892Z,4.15
2023-03-22T05:19:03.772Z,4.20
2023-03-22T05:21:36.774Z,4.68
2023-03-22T05:26:30.115Z,4.20
2023-03-22T05:28:56.894Z,4.72
2023-03-22T05:31:23.754Z,3.90
2023-03-22T05:33:53.622Z,4.53
2023-03-22T05:36:21.622Z,4.13
2023-03-22T05:38:48.962Z,3.95
2023-03-22T05:41:16.001Z,4.10
2023-03-22T05:43:42.700Z,4.15
2023-03-22T05:46:10.520Z,3.88
2023-03-22T05:48:38.432Z,4.57
2023-03-22T05:51:09.586Z,5.25
2023-03-22T05:53:36.672Z,4.40
2023-03-22T05:56:03.554Z,3.55
2023-03-22T05:58:31.479Z,4.00
2023-03-22T06:01:01.119Z,3.55
2023-03-22T06:03:28.526Z,3.97
2023-03-22T06:05:55.400Z,4.05
2023-03-22T06:08:25.363Z,3.55
2023-03-22T06:10:53.624Z,3.83
2023-03-22T06:13:21.718Z,4.38
2023-03-22T06:15:48.578Z,4.00
2023-03-22T06:18:15.564Z,4.38
2023-03-22T06:20:42.516Z,4.43
2023-03-22T06:23:09.306Z,4.38
2023-03-22T06:25:36.172Z,3.90
2023-03-22T06:28:02.998Z,3.60
2023-03-22T06:30:29.778Z,3.72
2023-03-22T06:33:00.623Z,3.72
2023-03-22T06:35:27.778Z,4.15
2023-03-22T06:37:54.589Z,3.97
2023-03-22T06:40:21.347Z,4.20
2023-03-22T06:42:48.403Z,3.20
2023-03-22T06:45:16.645Z,3.65
2023-03-22T06:47:44.616Z,4.28
2023-03-22T06:50:11.788Z,3.50
2023-03-22T06:52:38.858Z,4.18
2023-03-22T06:55:05.951Z,3.80
2023-03-22T06:57:32.831Z,3.60
2023-03-22T06:59:59.534Z,3.38
2023-03-22T07:02:26.266Z,3.35
2023-03-22T07:04:52.940Z,3.08
2023-03-22T07:07:19.646Z,3.72
2023-03-22T07:09:46.476Z,3.28
2023-03-22T07:12:13.220Z,3.33
2023-03-22T07:14:40.073Z,2.80
2023-03-22T07:17:06.791Z,2.95
2023-03-22T07:19:33.473Z,4.25
2023-03-22T07:22:00.327Z,2.95
2023-03-22T07:24:27.006Z,2.95
2023-03-22T07:26:53.740Z,3.20
2023-03-22T07:29:20.731Z,2.92
2023-03-22T07:31:47.467Z,2.65
2023-03-22T07:34:14.433Z,2.50
2023-03-22T07:36:41.168Z,2.47
2023-03-22T07:39:07.812Z,3.22
2023-03-22T07:41:34.777Z,2.65
2023-03-22T07:44:15.198Z,2.40
2023-03-22T07:46:44.035Z,3.03
2023-03-22T07:49:10.882Z,2.22
2023-03-22T07:51:37.644Z,2.70
2023-03-22T07:54:07.075Z,2.50
2023-03-22T07:56:34.306Z,2.60
2023-03-22T07:59:01.170Z,2.33
2023-03-22T08:01:28.167Z,2.40
2023-03-22T08:03:54.863Z,1.90
2023-03-22T08:06:21.909Z,2.22
2023-03-22T08:08:48.696Z,2.30
2023-03-22T08:11:15.676Z,1.80
2023-03-22T08:13:42.471Z,1.90
2023-03-22T08:16:09.169Z,2.13
2023-03-22T08:18:36.240Z,2.10
2023-03-22T08:21:03.415Z,2.22
2023-03-22T08:23:41.018Z,1.98
2023-03-22T08:26:10.861Z,2.10
2023-03-22T08:28:37.903Z,1.98
2023-03-22T08:31:15.858Z,2.15
2023-03-22T08:33:42.972Z,1.55
2023-03-22T08:36:12.753Z,1.63
2023-03-22T08:38:44.604Z,1.60
2023-03-22T08:41:13.134Z,1.50
2023-03-22T08:43:40.327Z,1.65
2023-03-22T08:46:07.063Z,1.50
2023-03-22T08:48:35.812Z,1.10
2023-03-22T08:51:02.929Z,1.10
2023-03-22T08:53:29.855Z,0.82
2023-03-22T08:55:58.261Z,0.98
2023-03-22T08:58:24.974Z,1.00
2023-03-22T09:00:52.054Z,0.85
2023-03-22T09:03:19.120Z,0.90
2023-03-22T09:05:46.059Z,0.82
2023-03-22T09:08:19.125Z,0.80
2023-03-22T09:10:51.673Z,0.98
2023-03-22T09:13:19.437Z,0.82
2023-03-22T09:15:46.433Z,0.90
2023-03-22T09:18:13.701Z,0.70
2023-03-22T09:20:40.739Z,1.10
2023-03-22T09:23:07.824Z,0.70
2023-03-22T09:25:34.996Z,0.80
2023-03-22T09:28:02.396Z,0.80
2023-03-22T09:30:29.200Z,0.63
2023-03-22T09:32:56.162Z,0.80
2023-03-22T09:35:23.096Z,0.50
2023-03-22T09:37:53.386Z,0.73
2023-03-22T09:40:21.380Z,0.63
2023-03-22T09:42:52.836Z,0.82
2023-03-22T09:45:25.165Z,0.88
2023-03-22T09:47:53.742Z,0.70
2023-03-22T09:50:23.690Z,0.80
2023-03-22T09:52:50.902Z,0.77
2023-03-22T09:55:54.414Z,0.68
2023-03-22T09:58:45.851Z,0.90
2023-03-22T10:01:31.828Z,0.65
2023-03-22T10:04:04.793Z,0.68
2023-03-22T10:09:16.927Z,0.80
2023-03-22T10:11:55.849Z,0.88
2023-03-22T10:15:24.122Z,0.90
2023-03-22T10:17:53.802Z,0.50
2023-03-22T10:20:37.051Z,0.68
2023-03-22T10:23:05.869Z,0.60
2023-03-22T10:25:37.631Z,0.40
2023-03-22T10:28:35.042Z,0.63
2023-03-22T10:31:04.391Z,1.00
2023-03-22T10:33:50.458Z,0.80
2023-03-22T10:36:19.253Z,0.57
2023-03-22T10:38:50.794Z,0.70
2023-03-22T10:41:18.659Z,0.85
2023-03-22T10:43:46.133Z,0.88
2023-03-22T10:46:24.616Z,0.90
2023-03-22T10:48:52.179Z,0.60
2023-03-22T10:51:40.967Z,0.90
2023-03-22T10:54:12.977Z,1.02
2023-03-22T10:56:42.070Z,0.70
2023-03-22T10:59:12.732Z,0.70
2023-03-22T11:01:44.998Z,0.80
2023-03-22T11:04:15.216Z,0.70
2023-03-22T11:06:55.625Z,0.73
2023-03-22T11:09:24.258Z,0.80
2023-03-22T11:11:58.809Z,0.70
2023-03-22T11:14:28.299Z,0.95
2023-03-22T11:17:00.170Z,0.60
2023-03-22T11:19:37.892Z,0.77
2023-03-22T11:22:33.508Z,0.70
2023-03-22T11:25:00.452Z,0.60
2023-03-22T11:27:30.023Z,0.77
2023-03-22T11:30:24.195Z,0.90
2023-03-22T11:33:01.186Z,0.70
2023-03-22T11:35:30.074Z,0.60
2023-03-22T11:37:59.730Z,1.08
2023-03-22T11:40:35.106Z,0.60
2023-03-22T11:43:13.233Z,0.60
2023-03-22T11:45:43.163Z,0.60
2023-03-22T11:48:19.579Z,0.75
2023-03-22T11:50:46.931Z,0.60
2023-03-22T11:53:25.514Z,0.70
2023-03-22T11:55:54.620Z,1.00
2023-03-22T11:58:40.918Z,0.93
2023-03-22T12:01:07.845Z,1.00
2023-03-22T12:03:39.025Z,0.50
2023-03-22T12:06:35.281Z,0.90
2023-03-22T12:09:29.916Z,0.90
2023-03-22T12:11:57.475Z,0.90
2023-03-22T12:14:44.401Z,0.70
2023-03-22T12:17:24.490Z,0.93
2023-03-22T12:20:08.317Z,0.90
2023-03-22T12:22:40.032Z,0.90
2023-03-22T12:25:18.301Z,0.60
2023-03-22T12:27:50.944Z,0.88
2023-03-22T12:30:41.528Z,0.82
2023-03-22T12:33:57.480Z,0.82
2023-03-22T12:36:31.538Z,0.60
2023-03-22T12:38:59.136Z,0.70
2023-03-22T12:41:48.110Z,0.75
2023-03-22T12:44:24.152Z,0.70
2023-03-22T12:46:57.048Z,0.52
2023-03-22T12:49:27.709Z,0.50
2023-03-22T12:51:55.874Z,0.50
2023-03-22T12:54:24.451Z,0.65
2023-03-22T12:56:51.223Z,0.90
2023-03-22T12:59:20.758Z,0.68
2023-03-22T13:01:51.447Z,0.70
2023-03-22T13:04:32.287Z,0.50
2023-03-22T13:07:09.124Z,0.47
2023-03-22T13:09:44.365Z,0.50
2023-03-22T13:12:18.493Z,0.35
2023-03-22T13:14:57.810Z,0.50
2023-03-22T13:17:25.308Z,0.60
2023-03-22T13:20:08.127Z,0.70
2023-03-22T13:25:12.602Z,0.50
2023-03-22T13:27:46.349Z,0.73
2023-03-22T13:30:26.737Z,0.70
2023-03-22T13:32:56.505Z,0.50
2023-03-22T13:35:42.282Z,0.68
2023-03-22T13:38:25.279Z,0.50
2023-03-22T13:41:06.224Z,0.70
2023-03-22T13:43:37.323Z,0.90
2023-03-22T13:46:22.251Z,0.90
2023-03-22T13:48:52.542Z,0.60
2023-03-22T13:51:22.886Z,0.57
2023-03-22T13:53:55.671Z,0.80
2023-03-22T13:56:49.921Z,0.77
2023-03-22T13:59:27.106Z,0.45
2023-03-22T14:02:04.523Z,0.80
2023-03-22T14:04:44.539Z,0.70
2023-03-22T14:07:23.595Z,0.80
2023-03-22T14:10:06.667Z,0.60
2023-03-22T14:12:56.051Z,0.57
2023-03-22T14:15:28.891Z,0.98
2023-03-22T14:18:00.104Z,0.40
2023-03-22T14:20:31.260Z,1.00
